Aérodrome :
LOGIN :

S'inscrire | Disclaimer

   EN    FR    IT 

 










Légende :    VFR   VFR Marginal   IFR   IFR Intensif   IFR Très Intensif
Visi : 
Plafond : 
>= 8 km
>= 3000ft
5 à 8 km
1000 à 3000 ft
1500m à 5 km
500 à 1000 ft
800 à 1500m
200 à 500 ft
< 800m
< 200 ft
Symboles :   Orages  Brouillard  Fortes neiges  Fortes précipitations  Vent > 20 kt
SIGMETs :   Divers  Orages  Givrage  Turbulence  Onde Orograph.  Cendres Volcan.






- Altitude de l'aérodrome : 856 ft
- Code IATA : VGO


LEVX - Vigo Peinador

DERNIER METAR :
  • 280030Z 20006KT 160V230 1000 R19/P2000 R01/P2000 BCFG BKN002 10/10 Q1025 NOSIG

METARs EXPIRÉS :
  • 280000Z 19006KT 160V230 1000 R19/P2000 R01/1900N BCFG VV001 10/10 Q1025 NOSIG
  • 272330Z 22004KT 190V250 1500 BCFG BKN002 10/10 Q1025 NOSIG
  • 272300Z 22004KT 180V280 1500 BCFG SCT002 10/10 Q1025 NOSIG
  • 272235Z VRB02KT 0700 R19/1500D R01/0750D FG VV004 10/09 Q1026 NOSIG
  • 272212Z 00000KT 4000 BR SCT004 10/10 Q1026 TEMPO 2000 BKN004

TAF TAF LEVX
Valide du 28 à 00h jusqu'au 29 à 00h UTC


272300Z 2800/2824 20006KT 8000 SCT005 BKN015 TX16/2814Z TN09/2806Z
TEMPO 2800/2809 3000 BR BKN005
TEMPO 2800/2809 0800 BCFG BKN002
PROB40
TEMPO 2800/2808 0350 FG VV001
TEMPO 2822/2824 22015G25KT 3000 RA BKN005



MET'MAP, la Météo Aéronautique d'un coup d'oeil ! - Copyright ORBIFLY Décembre 2007 - Disclaimer

ORBIFLY MET'MAP TEAM :

Programmation & Développement : Alexandra Zaïnal
Sur une idée originale de : Baudouin d'Aumeries
Assistance à la programmation : Marc-Olivier Méhu
Soutien technique & logistique : Manuel Goepfert

Contact : metmap@orbifly.com




SOURCES & CREDITS :

   NOAA